Terminal Aerodrome Forecast
Issued by NWS

Home | Current Version | Previous Version | Text Only | Print | Product List | Glossary On
Versions: 1 2 3 4 5 6 7 8 9 10 11 12 13 14 15 16 17 18 19 20 21 22 23
000
FTUS43 KDLH 290500
TAFHYR
TAF
KHYR 290521Z 2906/3006 VRB02KT 1SM -FZDZSN BR OVC012
     FM290800 30009KT 3SM -FZDZ BR OVC008
     FM291300 32012G22KT 5SM -SN BLSN BKN011 OVC022
     FM292100 33011KT P6SM -SN OVC018
     FM300300 34005KT P6SM OVC012=

USA.gov is the U.S. government's official web portal to all federal, state and local government web resources and services.